CL99 weather

Watsonville Community Hospital Heliport
Watsonville, California, United States

Public forecast

Using degrees Fahrenheit for public forecast. Weather courtesy of forecast.io.

Closest aviation weather report (METAR) to Watsonville Community Hospital Heliport

Closest report is Watsonville Municipal Airport, 0.7 nm (1.3 km) WSW. Retrieved 2019/10/21 00:53 UTC (53 minutes ago):

KWVI 210053Z AUTO 18003KT 10SM CLR 22/09 A3007 RMK AO2 SLP180 T02170089

Closest aviation forecast (TAF) to Watsonville Community Hospital Heliport

Closest forecast is Salinas Municipal Airport, 18.5 nm (34.3 km) SSE. Retrieved 2019-10-21 00:27 UTC (1 hour ago):

TAF KSNS 202324Z 2100/2124 30014G20KT P6SM SKC FM210400 28005KT P6SM SKC FM210800 12004KT P6SM SKC FM211000 12005KT 4SM BR BKN005 FM211700 12005KT P6SM SKC FM212100 30008KT P6SM SKC